Time;durP1;ratioP1;P1;durP2;ratioP2;P2;SDS_P1;SDS_P2;PMS_P1;PMS_P2;Temp;Humidity;BMP_temperature;BMP_pressure;BME280_temperature;BME280_humidity;BME280_pressure;Samples;Min_cycle;Max_cycle;Signal;HPM_P1;HPM_P2
2021/12/21 00:00:31;;;;;;;43.22;25.95;;;;;;;6.20;56.10;99239.00;5094645;28;20402;-49
2021/12/21 00:02:57;;;;;;;33.78;25.13;;;;;;;6.24;56.85;99238.66;5093296;28;20024;-48
2021/12/21 00:05:27;;;;;;;32.33;21.25;;;;;;;6.30;56.67;99238.03;5094524;28;20035;-49
2021/12/21 00:07:55;;;;;;;43.50;28.92;;;;;;;6.33;56.00;99242.94;5094510;28;20039;-49
2021/12/21 00:10:23;;;;;;;44.38;27.05;;;;;;;6.42;56.07;99231.56;5094429;28;20038;-48
2021/12/21 00:15:39;;;;;;;33.10;21.83;;;;;;;6.48;56.00;99241.34;5094299;28;20036;-49
2021/12/21 00:18:20;;;;;;;32.20;21.27;;;;;;;6.48;55.60;99243.97;5094425;28;20031;-48
2021/12/21 00:21:02;;;;;;;35.08;21.95;;;;;;;6.48;55.86;99246.56;5094287;28;20059;-49
2021/12/21 00:23:31;;;;;;;28.25;18.70;;;;;;;6.48;55.81;99241.34;5094225;28;20375;-49
2021/12/21 00:26:00;;;;;;;31.38;21.35;;;;;;;6.43;55.45;99241.00;5094115;28;20020;-48
2021/12/21 00:28:30;;;;;;;28.75;18.63;;;;;;;6.34;55.65;99234.16;5092792;28;20379;-49
2021/12/21 00:30:56;;;;;;;31.92;17.58;;;;;;;6.27;55.97;99236.56;5093845;28;20097;-49
2021/12/21 00:33:22;;;;;;;28.95;20.77;;;;;;;6.28;55.91;99235.59;5094088;28;20028;-49
2021/12/21 00:35:47;;;;;;;25.80;17.17;;;;;;;6.32;55.85;99236.09;5093365;28;20042;-49
2021/12/21 00:38:14;;;;;;;29.58;19.08;;;;;;;6.37;55.82;99226.00;5092624;28;20110;-48
2021/12/21 00:40:40;;;;;;;29.42;19.73;;;;;;;6.44;55.75;99219.19;5093911;28;20027;-49
2021/12/21 00:43:05;;;;;;;32.55;25.13;;;;;;;6.50;55.24;99226.34;5093874;28;20058;-49
2021/12/21 00:45:31;;;;;;;702.85;456.20;;;;;;;6.46;55.95;99212.00;5093729;28;20110;-49
2021/12/21 00:47:57;;;;;;;177.82;113.38;;;;;;;6.52;55.21;99213.97;5092423;28;20055;-49
2021/12/21 00:50:23;;;;;;;58.85;43.15;;;;;;;6.51;55.16;99214.94;5093687;28;20504;-49
2021/12/21 00:52:51;;;;;;;33.10;23.42;;;;;;;6.51;55.79;99214.13;5093625;28;20481;-49
2021/12/21 00:55:18;;;;;;;25.95;18.55;;;;;;;6.49;55.26;99219.50;5093561;28;20508;-48
2021/12/21 00:57:45;;;;;;;26.63;18.42;;;;;;;6.48;55.79;99220.50;5093621;28;20024;-49
2021/12/21 01:00:13;;;;;;;27.02;18.10;;;;;;;6.49;55.02;99227.31;5093563;28;20020;-49
2021/12/21 01:02:40;;;;;;;27.55;18.10;;;;;;;6.53;55.31;99231.25;5093399;28;20077;-49
2021/12/21 01:05:15;;;;;;;24.20;16.50;;;;;;;6.60;55.65;99226.22;5093423;28;20028;-50
2021/12/21 01:07:44;;;;;;;26.08;16.77;;;;;;;6.58;55.07;99223.75;5093559;28;20032;-48
2021/12/21 01:12:50;;;;;;;25.05;16.50;;;;;;;6.31;55.21;99227.44;5093303;28;20032;-49
2021/12/21 01:15:42;;;;;;;21.35;15.32;;;;;;;6.34;55.15;99226.31;5093223;28;20027;-48
2021/12/21 01:18:16;;;;;;;25.48;18.20;;;;;;;6.20;55.28;99230.38;5093252;28;20020;-48
2021/12/21 01:21:32;;;;;;;23.73;15.98;;;;;;;6.12;55.39;99219.91;5093168;28;20024;-48
2021/12/21 01:23:43;;;;;;;22.13;16.02;;;;;;;6.03;56.01;99211.25;5087187;28;20048;-49
2021/12/21 01:26:18;;;;;;;32.03;17.58;;;;;;;6.12;56.16;99218.13;5091704;28;20497;-49
2021/12/21 01:28:56;;;;;;;23.55;15.80;;;;;;;6.13;55.67;99211.09;5093085;28;20038;-48
2021/12/21 01:37:00;;;;;;;26.30;16.57;;;;;;;6.71;54.79;99220.66;5092857;28;20036;-48
2021/12/21 01:41:59;;;;;;;23.38;15.73;;;;;;;6.70;54.04;99224.25;5092706;28;20512;-49
2021/12/21 01:49:45;;;;;;;25.65;16.35;;;;;;;6.26;55.76;99226.28;5092326;28;20089;-48
2021/12/21 01:52:17;;;;;;;24.90;15.45;;;;;;;6.33;55.58;99227.28;5092541;28;20038;-49
2021/12/21 01:54:43;;;;;;;29.08;19.00;;;;;;;6.31;55.21;99230.06;5092391;28;20032;-49
2021/12/21 01:57:10;;;;;;;24.17;16.23;;;;;;;6.27;55.34;99227.94;5092453;28;20017;-49
2021/12/21 01:59:37;;;;;;;22.80;16.95;;;;;;;6.22;55.40;99233.63;5092437;28;20055;-48
2021/12/21 02:02:05;;;;;;;20.92;15.02;;;;;;;6.23;54.99;99234.44;5091068;28;20555;-49
2021/12/21 02:04:30;;;;;;;23.95;15.25;;;;;;;6.11;55.07;99233.91;5092360;28;20058;-48
2021/12/21 02:06:56;;;;;;;21.25;15.27;;;;;;;6.02;55.83;99238.28;5092244;28;20051;-49
2021/12/21 02:09:28;;;;;;;25.73;15.30;;;;;;;6.07;56.33;99243.81;5092298;28;20448;-49
2021/12/21 02:11:55;;;;;;;19.42;14.07;;;;;;;6.20;55.62;99239.00;5092219;28;20031;-48
2021/12/21 02:14:20;;;;;;;23.73;18.02;;;;;;;6.21;55.77;99237.19;5090766;28;20051;-49
2021/12/21 02:17:44;;;;;;;19.77;14.27;;;;;;;6.30;55.87;99238.03;5090751;28;20064;-49
2021/12/21 02:19:42;;;;;;;20.73;14.93;;;;;;;6.35;55.29;99230.56;5089883;28;20072;-48
2021/12/21 02:22:12;;;;;;;21.40;15.68;;;;;;;6.38;55.32;99228.44;5092010;28;20081;-49
2021/12/21 02:24:51;;;;;;;23.52;14.85;;;;;;;6.50;55.08;99228.97;5092014;28;20067;-48
2021/12/21 02:27:29;;;;;;;27.92;14.93;;;;;;;6.51;54.74;99222.75;5091953;28;20067;-50
2021/12/21 02:29:55;;;;;;;23.33;14.48;;;;;;;6.52;55.29;99221.78;5091838;28;20118;-49
2021/12/21 02:32:22;;;;;;;21.55;14.75;;;;;;;6.57;54.56;99214.28;5090648;28;20120;-48
2021/12/21 02:34:49;;;;;;;21.80;15.32;;;;;;;6.59;54.33;99206.31;5091848;28;20078;-48
2021/12/21 02:37:15;;;;;;;21.08;14.90;;;;;;;6.42;54.61;99210.69;5091929;28;20051;-49
2021/12/21 02:39:41;;;;;;;25.17;15.55;;;;;;;6.23;55.42;99213.59;5091895;28;20100;-49
2021/12/21 02:42:07;;;;;;;24.33;15.32;;;;;;;5.92;55.18;99207.13;5090507;28;20077;-49
2021/12/21 02:44:33;;;;;;;23.13;16.65;;;;;;;5.72;56.05;99203.94;5091933;28;20031;-49
2021/12/21 02:47:00;;;;;;;21.10;15.15;;;;;;;5.62;56.01;99207.63;5091799;28;20032;-48
2021/12/21 02:49:26;;;;;;;22.27;16.17;;;;;;;5.59;56.83;99208.75;5091802;28;20020;-49
2021/12/21 02:51:52;;;;;;;22.08;15.13;;;;;;;5.45;57.10;99199.72;5091797;28;20494;-48
2021/12/21 02:54:19;;;;;;;21.45;15.95;;;;;;;5.48;56.61;99199.44;5091666;28;20023;-48
2021/12/21 02:56:46;;;;;;;21.30;15.75;;;;;;;5.56;56.76;99202.06;5091742;28;20035;-49
2021/12/21 02:59:12;;;;;;;30.38;16.58;;;;;;;5.60;56.84;99202.56;5092432;28;20394;-48
2021/12/21 03:01:39;;;;;;;22.63;14.93;;;;;;;5.63;56.76;99199.66;5095825;28;20047;-49
2021/12/21 03:04:07;;;;;;;22.27;16.00;;;;;;;5.88;57.18;99197.16;5095654;28;20556;-48
2021/12/21 03:08:59;;;;;;;21.67;15.40;;;;;;;6.06;56.47;99192.69;5095951;28;20494;-48
2021/12/21 03:11:47;;;;;;;26.67;19.98;;;;;;;6.13;56.35;99182.44;5095563;28;20115;-49
2021/12/21 03:14:13;;;;;;;32.92;16.42;;;;;;;6.24;56.39;99189.97;5095513;28;20028;-48
2021/12/21 03:16:40;;;;;;;24.70;15.57;;;;;;;6.38;55.96;99181.53;5095563;28;20485;-49
2021/12/21 03:19:07;;;;;;;25.00;18.02;;;;;;;6.37;54.98;99182.50;5095476;28;20020;-48
2021/12/21 03:21:34;;;;;;;25.17;17.85;;;;;;;5.99;55.34;99183.88;5095443;28;20016;-48
2021/12/21 03:24:01;;;;;;;25.38;16.85;;;;;;;5.64;56.18;99183.06;5094045;28;20074;-49
2021/12/21 03:26:27;;;;;;;22.55;16.23;;;;;;;5.64;56.82;99183.06;5095290;28;20059;-49
2021/12/21 03:28:53;;;;;;;26.20;17.50;;;;;;;5.57;56.78;99179.44;5095303;28;20105;-48
2021/12/21 03:31:19;;;;;;;29.50;16.88;;;;;;;5.59;56.89;99173.13;5094951;28;20383;-49
2021/12/21 03:33:46;;;;;;;25.58;17.42;;;;;;;5.82;56.96;99172.56;5095208;28;20028;-49
2021/12/21 03:36:11;;;;;;;21.58;15.68;;;;;;;5.99;56.72;99178.66;5095069;28;20363;-49
2021/12/21 03:38:39;;;;;;;24.80;18.10;;;;;;;5.96;56.06;99173.78;5095075;28;20039;-48
2021/12/21 03:41:14;;;;;;;24.25;16.27;;;;;;;5.92;56.60;99172.44;5095074;28;20024;-49
2021/12/21 03:43:39;;;;;;;26.40;18.23;;;;;;;5.97;56.59;99171.00;5094992;28;20028;-49
2021/12/21 03:46:09;;;;;;;34.08;18.38;;;;;;;5.89;55.50;99175.34;5094943;28;20428;-48
2021/12/21 03:48:38;;;;;;;26.35;17.83;;;;;;;5.65;56.26;99170.84;5093918;28;20039;-49
2021/12/21 03:51:04;;;;;;;29.50;17.70;;;;;;;5.59;56.25;99159.28;5094846;28;20390;-49
2021/12/21 03:53:30;;;;;;;25.60;17.92;;;;;;;5.40;56.21;99161.16;5094824;28;20047;-49
2021/12/21 03:58:33;;;;;;;27.15;17.23;;;;;;;5.39;56.73;99166.50;5094790;28;20020;-49
2021/12/21 04:00:59;;;;;;;28.20;18.95;;;;;;;5.34;57.35;99158.38;5094677;28;20371;-49
2021/12/21 04:03:25;;;;;;;23.98;16.40;;;;;;;5.27;57.26;99168.59;5094611;28;20047;-48
2021/12/21 04:05:51;;;;;;;26.73;17.23;;;;;;;5.40;57.46;99168.16;5094621;28;20051;-48
2021/12/21 04:08:17;;;;;;;24.83;17.60;;;;;;;5.54;57.01;99171.97;5094858;28;20473;-48
2021/12/21 04:10:42;;;;;;;27.73;18.75;;;;;;;5.55;57.40;99165.78;5093655;28;20497;-49
2021/12/21 04:13:10;;;;;;;24.23;17.38;;;;;;;5.51;57.25;99161.84;5094301;28;20533;-48
2021/12/21 04:15:43;;;;;;;29.55;18.40;;;;;;;5.49;56.71;99155.97;5094263;28;20057;-48
2021/12/21 04:18:12;;;;;;;37.20;27.48;;;;;;;5.38;56.63;99155.28;5094375;28;20024;-49
2021/12/21 04:20:39;;;;;;;28.15;17.77;;;;;;;5.42;56.96;99158.41;5094286;28;20022;-48
2021/12/21 04:23:06;;;;;;;24.70;17.25;;;;;;;5.53;57.16;99154.69;5094296;28;20020;-49
2021/12/21 04:25:32;;;;;;;24.38;17.10;;;;;;;5.55;56.81;99143.19;5094209;28;20153;-48
2021/12/21 04:27:58;;;;;;;27.90;17.77;;;;;;;5.59;56.50;99139.28;5092894;28;20043;-49
2021/12/21 04:30:24;;;;;;;26.10;17.77;;;;;;;5.68;56.36;99147.94;5093861;28;20529;-49
2021/12/21 04:32:49;;;;;;;31.08;18.05;;;;;;;5.67;56.26;99137.66;5094020;28;20020;-49
2021/12/21 04:35:19;;;;;;;49.53;21.02;;;;;;;5.49;56.50;99137.75;5093943;28;20448;-48
2021/12/21 04:37:50;;;;;;;31.45;19.15;;;;;;;5.37;56.91;99137.22;5092631;28;20406;-48
2021/12/21 04:40:19;;;;;;;34.15;19.40;;;;;;;5.46;56.96;99146.69;5093944;28;20028;-49
2021/12/21 04:42:45;;;;;;;29.42;19.00;;;;;;;5.46;56.81;99140.69;5093874;28;20020;-49
2021/12/21 04:45:10;;;;;;;29.33;19.25;;;;;;;5.37;56.78;99142.41;5093861;28;20639;-48
2021/12/21 04:47:36;;;;;;;26.80;19.17;;;;;;;5.22;56.88;99141.38;5092435;28;20065;-48
2021/12/21 04:50:02;;;;;;;33.75;19.98;;;;;;;5.22;57.34;99142.19;5093729;28;20056;-48
2021/12/21 04:52:28;;;;;;;28.65;18.33;;;;;;;5.34;57.24;99140.16;5093688;28;20508;-49
2021/12/21 04:54:55;;;;;;;29.90;21.63;;;;;;;5.24;57.30;99137.66;5093846;28;20035;-49
2021/12/21 04:57:21;;;;;;;30.90;20.33;;;;;;;5.12;57.15;99138.88;5093569;28;20024;-49
2021/12/21 04:59:46;;;;;;;26.42;18.73;;;;;;;5.15;57.55;99147.22;5093584;28;20050;-49
2021/12/21 05:02:12;;;;;;;30.92;19.17;;;;;;;5.19;57.12;99139.88;5093474;28;20031;-49
2021/12/21 05:04:38;;;;;;;27.77;18.92;;;;;;;5.20;57.06;99133.72;5093447;28;20031;-48
2021/12/21 05:07:06;;;;;;;27.67;18.25;;;;;;;5.09;57.65;99126.16;5093385;28;20569;-49
2021/12/21 05:09:40;;;;;;;29.60;19.33;;;;;;;5.01;57.66;99126.97;5093288;28;20020;-48
2021/12/21 05:12:08;;;;;;;31.90;19.30;;;;;;;4.95;58.05;99127.53;5093305;28;20024;-48
2021/12/21 05:14:34;;;;;;;30.13;22.05;;;;;;;4.98;58.24;99128.06;5093189;28;20027;-49
2021/12/21 05:17:00;;;;;;;23.90;17.08;;;;;;;5.05;58.29;99135.25;5093190;28;20103;-49
2021/12/21 05:19:25;;;;;;;25.58;18.90;;;;;;;5.08;57.59;99129.75;5093197;28;20519;-48
2021/12/21 05:21:51;;;;;;;28.88;18.20;;;;;;;5.07;57.87;99136.75;5093024;28;20402;-48
2021/12/21 05:24:18;;;;;;;27.92;17.48;;;;;;;5.09;57.76;99128.78;5093143;28;20081;-49
2021/12/21 05:26:44;;;;;;;26.55;18.98;;;;;;;5.10;57.44;99135.63;5092971;28;20027;-49
2021/12/21 05:29:10;;;;;;;52.00;33.95;;;;;;;5.09;58.06;99132.22;5093012;28;20110;-48
2021/12/21 05:31:36;;;;;;;32.35;19.67;;;;;;;5.23;57.80;99141.22;5092711;28;20506;-49
2021/12/21 05:34:02;;;;;;;29.35;17.92;;;;;;;5.28;57.64;99132.97;5092822;28;20027;-48
2021/12/21 05:36:28;;;;;;;31.33;21.80;;;;;;;5.30;57.81;99129.22;5092765;28;20118;-48
2021/12/21 05:38:59;;;;;;;30.50;19.50;;;;;;;5.22;57.14;99128.38;5092808;28;20024;-48
2021/12/21 05:41:40;;;;;;;44.30;35.67;;;;;;;5.04;58.11;99126.63;5091710;28;20469;-48
2021/12/21 05:44:06;;;;;;;31.13;19.83;;;;;;;5.21;58.25;99124.94;5093036;28;20428;-51
2021/12/21 05:46:32;;;;;;;26.58;18.40;;;;;;;5.18;57.54;99128.66;5092667;28;20035;-51
2021/12/21 05:48:58;;;;;;;61.67;50.55;;;;;;;5.05;58.01;99128.28;5092608;28;20016;-48
2021/12/21 05:51:23;;;;;;;34.72;22.73;;;;;;;4.95;57.51;99128.38;5092600;28;20028;-49
2021/12/21 05:53:49;;;;;;;27.25;19.15;;;;;;;4.75;57.73;99132.16;5092544;28;20437;-48
2021/12/21 05:56:16;;;;;;;31.08;20.35;;;;;;;4.44;58.00;99131.75;5092424;28;20046;-48
2021/12/21 05:58:42;;;;;;;32.20;19.60;;;;;;;4.24;58.62;99139.69;5092536;28;20023;-48
2021/12/21 06:01:08;;;;;;;34.92;22.90;;;;;;;4.19;59.58;99134.13;5092484;28;20038;-49
2021/12/21 06:03:34;;;;;;;24.00;17.63;;;;;;;4.36;59.91;99135.06;5092443;28;20077;-48
2021/12/21 06:05:59;;;;;;;26.77;18.33;;;;;;;4.33;59.24;99127.59;5092338;28;20433;-49
2021/12/21 06:08:26;;;;;;;27.55;18.88;;;;;;;4.08;59.04;99129.94;5092377;28;20020;-48
2021/12/21 06:10:54;;;;;;;34.38;19.65;;;;;;;4.00;61.28;99137.66;5092245;28;20024;-48
2021/12/21 06:25:21;;;;;;;55.20;34.70;;;;;;;3.30;64.42;99150.31;5092108;28;20581;-49
2021/12/21 06:26:48;;;;;;;40.72;30.50;;;;;;;3.16;64.55;99156.78;5083685;28;20058;-48
2021/12/21 06:29:14;;;;;;;46.22;30.92;;;;;;;3.07;64.67;99152.44;5091990;28;20024;-49
2021/12/21 06:31:40;;;;;;;42.20;29.00;;;;;;;3.04;64.68;99155.28;5091743;28;20044;-48
2021/12/21 06:34:07;;;;;;;46.40;30.42;;;;;;;3.12;64.63;99163.19;5090171;28;20067;-48
2021/12/21 06:36:33;;;;;;;34.15;21.08;;;;;;;3.13;64.23;99159.66;5091931;28;20032;-49
2021/12/21 06:38:59;;;;;;;37.00;21.98;;;;;;;3.04;64.19;99160.47;5091836;28;20546;-48
2021/12/21 06:41:25;;;;;;;30.13;20.60;;;;;;;2.91;64.28;99165.97;5091900;28;20028;-48
2021/12/21 06:43:51;;;;;;;37.60;24.95;;;;;;;2.84;64.65;99162.28;5091869;28;20549;-48
2021/12/21 06:51:42;;;;;;;35.03;22.35;;;;;;;2.64;65.30;99164.94;5092048;28;20515;-49
2021/12/21 06:54:07;;;;;;;38.13;22.83;;;;;;;2.75;65.73;99162.16;5091794;28;20028;-48
2021/12/21 06:56:33;;;;;;;40.42;21.52;;;;;;;2.83;66.24;99164.06;5091621;28;20074;-48
2021/12/21 06:58:59;;;;;;;32.85;21.10;;;;;;;2.94;66.02;99161.34;5091681;28;20020;-48
2021/12/21 07:01:28;;;;;;;35.33;21.38;;;;;;;2.97;65.75;99150.66;5091626;28;20107;-48
2021/12/21 07:03:55;;;;;;;348.85;276.63;;;;;;;2.99;65.44;99156.53;5091653;28;20507;-49
2021/12/21 07:06:22;;;;;;;212.63;166.55;;;;;;;2.95;65.38;99155.19;5091610;28;20028;-48
2021/12/21 07:08:57;;;;;;;322.58;275.48;;;;;;;2.81;65.00;99163.41;5091669;28;20070;-49
2021/12/21 07:11:43;;;;;;;60.85;39.80;;;;;;;2.79;64.95;99160.13;5091656;28;20101;-48
2021/12/21 07:19:38;;;;;;;38.00;22.85;;;;;;;2.64;64.46;99162.34;5091557;28;20055;-49
2021/12/21 07:22:06;;;;;;;42.53;30.30;;;;;;;2.55;64.37;99165.72;5090168;28;20481;-51
2021/12/21 07:24:32;;;;;;;39.15;24.17;;;;;;;2.58;64.59;99168.88;5091519;28;20024;-49
2021/12/21 07:26:58;;;;;;;34.30;20.98;;;;;;;2.38;64.26;99165.47;5091406;28;20481;-49
2021/12/21 07:29:25;;;;;;;34.38;22.45;;;;;;;2.06;64.51;99176.06;5091444;28;20073;-49
2021/12/21 07:31:52;;;;;;;36.78;22.60;;;;;;;1.85;65.37;99175.34;5091217;28;20616;-48
2021/12/21 07:34:17;;;;;;;35.72;21.67;;;;;;;1.79;65.95;99179.25;5091305;28;20478;-48
2021/12/21 07:36:44;;;;;;;38.05;22.00;;;;;;;1.90;66.01;99186.13;5091309;28;20077;-49
2021/12/21 07:39:13;;;;;;;36.10;22.00;;;;;;;2.05;65.45;99183.97;5091404;28;20079;-48
2021/12/21 07:41:40;;;;;;;38.85;22.92;;;;;;;2.29;65.27;99193.94;5091304;28;20027;-49
2021/12/21 07:44:06;;;;;;;42.83;22.70;;;;;;;2.55;64.35;99189.88;5091285;28;20029;-49
2021/12/21 07:46:32;;;;;;;36.42;21.02;;;;;;;2.78;63.42;99190.41;5091168;28;20131;-49
2021/12/21 07:48:58;;;;;;;32.72;19.73;;;;;;;2.87;62.06;99188.75;5095001;28;20546;-49
2021/12/21 07:51:24;;;;;;;50.15;29.77;;;;;;;2.91;62.57;99186.72;5093520;28;20494;-49
2021/12/21 07:53:50;;;;;;;44.88;28.75;;;;;;;3.00;62.21;99191.88;5094860;28;20020;-49
2021/12/21 07:56:16;;;;;;;37.63;23.45;;;;;;;3.16;62.09;99193.09;5094706;28;20024;-49
2021/12/21 07:58:45;;;;;;;42.47;29.10;;;;;;;3.25;61.71;99189.66;5094808;28;20503;-48
2021/12/21 08:01:11;;;;;;;44.35;29.00;;;;;;;3.35;61.56;99189.63;5094696;28;20028;-48
2021/12/21 08:03:38;;;;;;;38.70;26.38;;;;;;;3.63;60.79;99200.03;5094593;28;20027;-49
2021/12/21 08:06:07;;;;;;;41.35;24.70;;;;;;;3.75;60.49;99202.31;5093317;28;20428;-49
2021/12/21 08:08:35;;;;;;;43.33;26.70;;;;;;;3.95;59.56;99207.41;5094625;28;20017;-48
2021/12/21 08:11:27;;;;;;;42.97;30.45;;;;;;;4.03;58.31;99204.91;5094798;28;20106;-49
2021/12/21 08:13:53;;;;;;;35.95;24.25;;;;;;;3.95;58.65;99208.22;5094376;28;20542;-49
2021/12/21 08:16:19;;;;;;;45.72;28.52;;;;;;;4.05;57.74;99205.56;5094594;28;20032;-48
2021/12/21 08:18:45;;;;;;;50.90;32.70;;;;;;;4.12;58.04;99208.41;5094339;28;20511;-49
2021/12/21 08:21:15;;;;;;;39.90;25.92;;;;;;;4.38;58.15;99198.13;5094300;28;20024;-49
2021/12/21 08:23:41;;;;;;;41.22;28.45;;;;;;;5.20;57.38;99217.00;5094688;28;20035;-49
2021/12/21 08:26:07;;;;;;;52.85;30.85;;;;;;;6.05;56.19;99219.72;5092916;28;20036;-49
2021/12/21 08:28:33;;;;;;;34.80;21.40;;;;;;;6.75;53.09;99213.34;5094169;28;20024;-49
2021/12/21 08:30:59;;;;;;;31.15;19.65;;;;;;;7.21;51.96;99216.25;5093838;28;20390;-49
2021/12/21 08:33:25;;;;;;;27.65;19.83;;;;;;;7.54;50.13;99210.94;5094349;28;20028;-49
2021/12/21 08:35:50;;;;;;;30.63;18.73;;;;;;;7.73;48.38;99215.00;5093945;28;20020;-49
2021/12/21 08:38:18;;;;;;;28.45;18.70;;;;;;;7.68;47.63;99207.63;5093938;28;20026;-49
2021/12/21 08:40:49;;;;;;;27.98;19.27;;;;;;;7.70;47.52;99216.13;5092649;28;20020;-50
2021/12/21 08:43:18;;;;;;;30.75;20.35;;;;;;;7.90;47.53;99218.34;5093996;28;20028;-49
2021/12/21 08:45:46;;;;;;;29.27;19.92;;;;;;;8.24;47.46;99206.75;5092504;28;20024;-49
2021/12/21 08:48:14;;;;;;;27.02;19.50;;;;;;;8.73;47.20;99214.28;5093891;28;20027;-49
2021/12/21 08:50:40;;;;;;;27.70;19.67;;;;;;;8.79;45.72;99205.75;5093702;28;20077;-50
2021/12/21 08:53:06;;;;;;;33.40;20.95;;;;;;;8.33;45.71;99203.09;5093708;28;20038;-49
2021/12/21 08:55:32;;;;;;;31.42;23.17;;;;;;;8.12;45.99;99198.47;5092223;28;20474;-49
2021/12/21 08:57:59;;;;;;;37.03;25.15;;;;;;;8.18;45.48;99195.19;5093267;28;20031;-49
2021/12/21 09:00:25;;;;;;;30.02;22.00;;;;;;;7.96;45.39;99202.00;5092248;28;20017;-49
2021/12/21 09:02:51;;;;;;;31.88;21.92;;;;;;;8.16;44.84;99211.03;5093494;28;20028;-50
2021/12/21 09:05:21;;;;;;;38.00;23.35;;;;;;;8.33;45.11;99213.53;5109204;28;20020;-49
2021/12/21 09:07:50;;;;;;;34.92;24.10;;;;;;;8.58;44.17;99204.59;5093389;28;20024;-49
2021/12/21 09:10:19;;;;;;;34.03;21.63;;;;;;;8.74;44.12;99208.91;5093394;28;20085;-49
2021/12/21 09:12:46;;;;;;;29.65;21.13;;;;;;;9.20;43.52;99203.59;5093320;28;20375;-49
2021/12/21 09:15:13;;;;;;;31.92;20.48;;;;;;;9.51;42.33;99205.25;5093217;28;20073;-49
2021/12/21 09:17:40;;;;;;;42.53;27.00;;;;;;;9.52;42.89;99206.88;5093247;28;20050;-49
2021/12/21 09:20:07;;;;;;;40.85;26.88;;;;;;;9.89;42.54;99206.94;5093160;28;20034;-49
2021/12/21 09:22:33;;;;;;;25.35;18.75;;;;;;;10.37;40.54;99215.19;5093154;28;20444;-49
2021/12/21 09:24:59;;;;;;;32.45;23.08;;;;;;;10.29;40.12;99207.41;5093099;28;20016;-49
2021/12/21 09:27:27;;;;;;;23.38;16.60;;;;;;;10.35;39.84;99211.94;5092964;28;20028;-49
2021/12/21 09:29:53;;;;;;;28.30;20.95;;;;;;;10.19;40.17;99215.56;5092741;28;20076;-50
2021/12/21 09:32:19;;;;;;;30.27;20.85;;;;;;;10.16;40.49;99215.94;5093047;28;20588;-49
2021/12/21 09:34:46;;;;;;;28.48;21.05;;;;;;;10.33;40.12;99217.38;5091534;28;20106;-50
2021/12/21 09:37:16;;;;;;;26.77;21.00;;;;;;;10.72;39.80;99210.88;5092864;28;20558;-50
2021/12/21 09:39:44;;;;;;;28.98;23.63;;;;;;;11.36;39.32;99220.47;5091560;28;20046;-50
2021/12/21 09:42:14;;;;;;;27.45;19.92;;;;;;;11.83;38.81;99214.69;5092635;28;20023;-49
2021/12/21 09:44:40;;;;;;;31.65;21.80;;;;;;;11.87;37.90;99213.28;5091427;28;20039;-49
2021/12/21 09:47:09;;;;;;;27.80;20.65;;;;;;;11.98;37.74;99213.56;5092681;28;20419;-49
2021/12/21 09:49:36;;;;;;;27.17;20.30;;;;;;;12.56;37.14;99215.78;5092684;28;20020;-50
2021/12/21 09:52:04;;;;;;;25.60;22.45;;;;;;;12.82;36.07;99219.47;5091279;28;20024;-49
2021/12/21 09:54:32;;;;;;;35.20;23.73;;;;;;;12.27;35.62;99218.72;5092523;28;20031;-49
2021/12/21 09:56:58;;;;;;;26.30;19.67;;;;;;;11.72;37.32;99213.44;5092519;28;20028;-50
2021/12/21 09:59:25;;;;;;;26.95;19.75;;;;;;;11.78;37.73;99213.44;5092461;28;20046;-49
2021/12/21 10:01:51;;;;;;;27.25;20.17;;;;;;;12.30;37.54;99215.72;5092417;28;20032;-49
2021/12/21 10:04:17;;;;;;;28.98;20.52;;;;;;;12.61;36.03;99202.00;5092441;28;20107;-50
2021/12/21 10:06:49;;;;;;;25.50;20.50;;;;;;;12.90;35.86;99207.91;5092326;28;20408;-50
2021/12/21 10:09:18;;;;;;;28.52;18.83;;;;;;;13.04;35.15;99196.34;5091669;28;20013;-48
2021/12/21 10:11:49;;;;;;;25.35;19.10;;;;;;;12.68;34.82;99202.81;5092307;28;20400;-50
2021/12/21 10:14:17;;;;;;;21.33;16.33;;;;;;;12.70;34.89;99202.63;5092370;28;20437;-50
2021/12/21 10:16:44;;;;;;;25.98;17.25;;;;;;;12.46;35.07;99204.00;5092213;28;20028;-50
2021/12/21 10:19:21;;;;;;;22.83;16.13;;;;;;;12.13;35.37;99202.09;5092147;28;20409;-50
2021/12/21 10:21:47;;;;;;;26.73;18.30;;;;;;;11.98;36.03;99196.97;5090855;28;20092;-49
2021/12/21 10:24:24;;;;;;;24.70;19.42;;;;;;;11.88;36.11;99194.69;5090803;28;20020;-49
2021/12/21 10:26:53;;;;;;;27.15;19.20;;;;;;;11.89;36.33;99190.25;5092062;28;20020;-49
2021/12/21 10:29:18;;;;;;;26.42;18.85;;;;;;;11.80;35.93;99189.59;5092085;28;20044;-49
2021/12/21 10:31:47;;;;;;;27.83;21.73;;;;;;;11.42;36.89;99191.81;5090404;28;20123;-50
2021/12/21 10:34:18;;;;;;;27.77;20.33;;;;;;;10.84;38.10;99198.06;5091981;28;20024;-50
2021/12/21 10:36:47;;;;;;;58.03;41.75;;;;;;;11.15;38.37;99194.28;5091914;28;20081;-50
2021/12/21 10:39:31;;;;;;;32.35;20.17;;;;;;;11.33;37.33;99188.53;5091906;28;20486;-49
2021/12/21 10:42:01;;;;;;;23.92;16.35;;;;;;;11.02;37.32;99186.28;5091918;28;20059;-49
2021/12/21 10:44:27;;;;;;;39.67;26.83;;;;;;;10.66;38.06;99184.59;5091876;28;20036;-50
2021/12/21 10:46:56;;;;;;;23.58;15.77;;;;;;;10.44;39.56;99178.53;5092072;28;20186;-50
2021/12/21 10:49:29;;;;;;;24.05;18.92;;;;;;;10.46;38.90;99171.28;5090537;28;20031;-50
2021/12/21 10:52:07;;;;;;;24.27;19.98;;;;;;;10.62;38.60;99168.38;5091917;28;20028;-50
2021/12/21 10:54:46;;;;;;;27.30;19.65;;;;;;;11.06;38.51;99163.91;5091835;28;20489;-49
2021/12/21 10:57:22;;;;;;;26.35;19.10;;;;;;;11.48;37.89;99159.50;5091840;28;20615;-49
2021/12/21 10:59:52;;;;;;;20.02;12.48;;;;;;;11.67;36.51;99153.53;5091754;28;20393;-49
2021/12/21 11:02:31;;;;;;;29.17;25.42;;;;;;;11.30;37.39;99141.63;5091753;28;20044;-49
2021/12/21 11:05:03;;;;;;;29.05;18.13;;;;;;;11.39;37.69;99150.97;5091705;28;20088;-50
2021/12/21 11:07:40;;;;;;;22.98;15.35;;;;;;;11.24;37.68;99143.19;5091708;28;20027;-49
2021/12/21 11:10:12;;;;;;;24.50;18.13;;;;;;;11.44;37.65;99139.88;5091709;28;20497;-49
2021/12/21 11:12:45;;;;;;;24.75;18.35;;;;;;;11.56;37.24;99133.88;5091618;28;20020;-49
2021/12/21 11:15:13;;;;;;;24.08;17.15;;;;;;;11.58;37.41;99138.94;5091434;28;20020;-49
2021/12/21 11:17:39;;;;;;;30.67;22.00;;;;;;;11.67;37.57;99121.16;5091819;28;20397;-49
2021/12/21 11:20:06;;;;;;;40.92;33.63;;;;;;;11.75;37.56;99124.44;5090708;28;20024;-50
2021/12/21 11:22:35;;;;;;;21.73;15.25;;;;;;;11.85;37.46;99123.25;5094204;28;20111;-49
2021/12/21 11:25:01;;;;;;;61.40;54.80;;;;;;;11.65;37.35;99121.38;5095420;28;20028;-49
2021/12/21 11:27:29;;;;;;;23.90;16.48;;;;;;;11.60;37.59;99113.25;5095411;28;20502;-51
2021/12/21 11:30:01;;;;;;;21.90;15.52;;;;;;;11.42;37.67;99105.91;5093712;28;20135;-50
2021/12/21 11:32:30;;;;;;;20.67;14.02;;;;;;;10.90;38.34;99109.84;5095348;28;20028;-49
2021/12/21 11:37:46;;;;;;;44.92;38.47;;;;;;;10.73;39.86;99098.84;5073490;28;20040;-49
2021/12/21 11:40:20;;;;;;;26.05;19.67;;;;;;;11.07;39.17;99092.78;5095375;28;20020;-49
2021/12/21 11:42:51;;;;;;;25.20;16.38;;;;;;;11.28;39.02;99089.25;5095178;28;20439;-50
2021/12/21 11:45:17;;;;;;;37.03;23.75;;;;;;;11.17;38.76;99089.81;5095027;28;20028;-50
2021/12/21 11:48:12;;;;;;;25.25;17.65;;;;;;;10.95;38.92;99083.84;5094989;28;20494;-49
2021/12/21 11:50:41;;;;;;;25.73;18.65;;;;;;;10.75;40.05;99087.13;5093691;28;20489;-49
2021/12/21 11:53:13;;;;;;;31.48;25.27;;;;;;;11.08;39.46;99078.66;5094948;28;20028;-49
2021/12/21 11:55:42;;;;;;;24.55;17.98;;;;;;;10.71;39.89;99082.47;5094836;28;20110;-49
2021/12/21 11:58:23;;;;;;;22.80;17.38;;;;;;;11.06;40.54;99080.66;5094797;28;20099;-50
2021/12/21 12:01:00;;;;;;;29.77;20.27;;;;;;;11.59;39.13;99077.47;5094791;28;20392;-49
2021/12/21 12:03:29;;;;;;;29.30;25.13;;;;;;;11.69;38.46;99080.53;5094783;28;20114;-49
2021/12/21 12:06:00;;;;;;;20.92;16.52;;;;;;;11.90;38.70;99071.72;5093265;28;20032;-50
2021/12/21 12:08:52;;;;;;;24.40;16.90;;;;;;;12.38;38.17;99063.66;5093349;28;20036;-50
2021/12/21 12:11:35;;;;;;;23.75;20.02;;;;;;;12.44;38.34;99064.69;5093263;28;20484;-50
2021/12/21 12:14:17;;;;;;;27.90;23.60;;;;;;;12.16;38.21;99063.06;5094506;28;20501;-50
2021/12/21 12:16:44;;;;;;;24.92;17.42;;;;;;;12.14;38.35;99059.81;5093063;28;20020;-50